createdAt,value
2018-06-09T00:00:30.870Z,64.77
2018-06-09T00:01:34.364Z,65.70
2018-06-09T00:02:37.508Z,65.55
2018-06-09T00:03:40.984Z,65.85
2018-06-09T00:04:44.364Z,66.47
2018-06-09T00:05:48.765Z,68.37
2018-06-09T00:06:52.191Z,71.12
2018-06-09T00:07:55.577Z,61.53
2018-06-09T00:08:58.963Z,67.53
2018-06-09T00:10:03.020Z,69.82
2018-06-09T00:11:07.409Z,74.20
2018-06-09T00:12:10.823Z,70.37
2018-06-09T00:13:14.227Z,70.97
2018-06-09T00:14:17.610Z,69.50
2018-06-09T00:15:22.388Z,63.28
2018-06-09T00:16:26.903Z,66.33
2018-06-09T00:17:30.388Z,66.47
2018-06-09T00:18:33.462Z,64.27
2018-06-09T00:19:36.576Z,64.40
2018-06-09T00:20:41.525Z,67.67
2018-06-09T00:21:44.631Z,68.28
2018-06-09T00:22:47.734Z,65.80
2018-06-09T00:23:57.537Z,66.60
2018-06-09T00:25:00.935Z,70.95
2018-06-09T00:26:05.275Z,71.80
2018-06-09T00:27:08.722Z,71.35
2018-06-09T00:28:12.123Z,68.45
2018-06-09T00:29:15.250Z,72.10
2018-06-09T00:30:19.721Z,67.80
2018-06-09T00:31:23.683Z,74.70
2018-06-09T00:32:27.059Z,74.15
2018-06-09T00:33:30.470Z,70.17
2018-06-09T00:34:33.860Z,76.25
2018-06-09T00:35:37.566Z,69.40
2018-06-09T00:36:41.000Z,73.57
2018-06-09T00:37:44.383Z,75.45
2018-06-09T00:38:47.787Z,76.40
2018-06-09T00:39:54.048Z,74.15
2018-06-09T00:40:58.288Z,72.60
2018-06-09T00:42:01.696Z,73.78
2018-06-09T00:43:05.080Z,68.33
2018-06-09T00:44:08.499Z,78.97
2018-06-09T00:45:13.244Z,69.07
2018-06-09T00:46:17.055Z,76.05
2018-06-09T00:47:20.811Z,76.22
2018-06-09T00:48:24.198Z,75.95
2018-06-09T00:49:27.595Z,72.03
2018-06-09T00:50:32.017Z,72.75
2018-06-09T00:51:35.427Z,69.72
2018-06-09T00:52:45.528Z,78.80
2018-06-09T00:53:48.912Z,73.55
2018-06-09T00:54:52.322Z,75.03
2018-06-09T00:56:01.580Z,71.70
2018-06-09T00:57:05.143Z,78.30
2018-06-09T00:58:08.234Z,74.50
2018-06-09T00:59:11.335Z,69.05
2018-06-09T01:00:15.943Z,71.25
2018-06-09T01:01:20.455Z,73.30
2018-06-09T01:02:23.882Z,75.22
2018-06-09T01:03:27.290Z,70.95
2018-06-09T01:04:30.695Z,69.67
2018-06-09T01:05:35.247Z,73.10
2018-06-09T01:06:38.681Z,77.65
2018-06-09T01:07:41.762Z,78.50
2018-06-09T01:08:45.145Z,73.15
2018-06-09T01:09:48.219Z,75.35
2018-06-09T01:10:52.656Z,76.25
2018-06-09T01:11:56.088Z,76.55
2018-06-09T01:12:59.491Z,79.03
2018-06-09T01:14:09.267Z,75.47
2018-06-09T01:15:13.699Z,79.75
2018-06-09T01:16:18.710Z,78.85
2018-06-09T01:17:28.767Z,84.92
2018-06-09T01:18:32.156Z,86.87
2018-06-09T01:19:35.543Z,85.50
2018-06-09T01:20:41.095Z,82.47
2018-06-09T01:21:44.526Z,86.10
2018-06-09T01:22:47.920Z,84.40
2018-06-09T01:23:51.315Z,84.03
2018-06-09T01:24:54.691Z,91.80
2018-06-09T01:25:59.686Z,82.15
2018-06-09T01:27:02.834Z,97.65
2018-06-09T01:28:06.233Z,82.42
2018-06-09T01:29:09.624Z,80.87
2018-06-09T01:30:14.530Z,86.85
2018-06-09T01:31:18.693Z,85.95
2018-06-09T01:32:22.119Z,81.25
2018-06-09T01:33:25.500Z,83.82
2018-06-09T01:34:28.885Z,85.25
2018-06-09T01:35:34.529Z,87.12
2018-06-09T01:36:37.943Z,87.20
2018-06-09T01:37:41.356Z,86.85
2018-06-09T01:38:44.935Z,83.87
2018-06-09T01:39:48.319Z,80.00
2018-06-09T01:40:52.216Z,89.22
2018-06-09T01:41:55.643Z,83.15
2018-06-09T01:42:59.051Z,79.95
2018-06-09T01:44:02.431Z,83.37
2018-06-09T01:45:06.808Z,89.25
2018-06-09T01:46:11.914Z,86.12
2018-06-09T01:47:15.315Z,82.25
2018-06-09T01:48:18.410Z,83.30
2018-06-09T01:49:21.839Z,87.00
2018-06-09T01:50:26.256Z,79.50
2018-06-09T01:51:30.322Z,82.85
2018-06-09T01:52:33.703Z,83.47
2018-06-09T01:53:37.127Z,89.60
2018-06-09T01:54:40.560Z,82.90
2018-06-09T01:55:45.999Z,79.25
2018-06-09T01:56:49.406Z,81.22
2018-06-09T01:57:52.795Z,78.28
2018-06-09T01:58:56.247Z,77.50
2018-06-09T01:59:59.627Z,79.15
2018-06-09T02:01:04.254Z,75.17
2018-06-09T02:02:07.663Z,78.15
2018-06-09T02:03:11.041Z,81.85
2018-06-09T02:04:14.459Z,77.08
2018-06-09T02:05:18.827Z,75.25
2018-06-09T02:06:23.117Z,79.10
2018-06-09T02:07:26.527Z,74.67
2018-06-09T02:08:29.918Z,76.37
2018-06-09T02:09:33.307Z,77.00
2018-06-09T02:10:38.588Z,81.65
2018-06-09T02:11:41.995Z,80.30
2018-06-09T02:12:45.075Z,79.77
2018-06-09T02:13:48.472Z,81.37
2018-06-09T02:14:51.899Z,82.37
2018-06-09T02:15:56.831Z,83.27
2018-06-09T02:17:00.256Z,80.53
2018-06-09T02:18:03.640Z,77.62
2018-06-09T02:19:07.029Z,80.15
2018-06-09T02:20:11.552Z,84.80
2018-06-09T02:21:15.941Z,84.47
2018-06-09T02:22:19.347Z,84.50
2018-06-09T02:23:22.735Z,83.37
2018-06-09T02:24:26.131Z,83.22
2018-06-09T02:25:30.638Z,84.47
2018-06-09T02:26:34.053Z,76.97
2018-06-09T02:27:37.447Z,88.67
2018-06-09T02:28:40.972Z,80.17
2018-06-09T02:29:44.073Z,83.42
2018-06-09T02:30:48.725Z,80.47
2018-06-09T02:31:52.160Z,83.40
2018-06-09T02:32:55.257Z,78.95
2018-06-09T02:33:58.647Z,80.92
2018-06-09T02:35:02.039Z,81.37
2018-06-09T02:36:06.960Z,84.47
2018-06-09T02:37:10.380Z,93.12
2018-06-09T02:38:13.775Z,85.92
2018-06-09T02:39:17.175Z,89.00
2018-06-09T02:40:21.062Z,81.00
2018-06-09T02:41:24.859Z,84.35
2018-06-09T02:42:27.959Z,79.32
2018-06-09T02:43:31.038Z,85.83
2018-06-09T02:44:34.229Z,80.38
2018-06-09T02:45:39.338Z,87.15
2018-06-09T02:46:42.759Z,75.08
2018-06-09T02:47:46.148Z,81.60
2018-06-09T02:48:49.555Z,80.03
2018-06-09T02:49:52.936Z,78.65
2018-06-09T02:50:58.282Z,76.77
2018-06-09T02:52:01.716Z,75.50
2018-06-09T02:53:05.099Z,73.67
2018-06-09T02:54:08.487Z,77.67
2018-06-09T02:55:12.958Z,81.15
2018-06-09T02:56:18.448Z,80.35
2018-06-09T02:57:21.887Z,75.12
2018-06-09T02:58:25.280Z,85.30
2018-06-09T02:59:28.759Z,77.30
2018-06-09T03:00:33.152Z,74.75
2018-06-09T03:01:36.602Z,78.83
2018-06-09T03:02:39.988Z,70.65
2018-06-09T03:03:49.924Z,72.58
2018-06-09T03:04:53.343Z,72.87
2018-06-09T03:05:57.886Z,71.95
2018-06-09T03:07:01.352Z,69.42
2018-06-09T03:08:04.772Z,74.20
2018-06-09T03:09:08.543Z,71.80
2018-06-09T03:10:13.070Z,76.25
2018-06-09T03:11:17.355Z,71.40
2018-06-09T03:12:20.839Z,70.10
2018-06-09T03:13:24.228Z,77.60
2018-06-09T03:14:27.611Z,71.80
2018-06-09T03:15:32.037Z,69.35
2018-06-09T03:16:35.159Z,73.37
2018-06-09T03:17:38.583Z,68.97
2018-06-09T03:18:41.999Z,71.80
2018-06-09T03:19:45.391Z,70.37
2018-06-09T03:20:49.994Z,68.42
2018-06-09T03:21:53.427Z,71.05
2018-06-09T03:22:56.823Z,71.85
2018-06-09T03:24:00.215Z,65.15
2018-06-09T03:25:04.223Z,68.95
2018-06-09T03:26:08.677Z,68.67
2018-06-09T03:27:12.088Z,74.90
2018-06-09T03:28:15.499Z,72.00
2018-06-09T03:29:18.881Z,75.00
2018-06-09T03:30:23.379Z,62.75
2018-06-09T03:31:27.959Z,70.00
2018-06-09T03:32:31.094Z,74.67
2018-06-09T03:33:34.491Z,73.00
2018-06-09T03:34:37.912Z,64.50
2018-06-09T03:35:41.801Z,67.35
2018-06-09T03:36:44.896Z,71.45
2018-06-09T03:38:57.799Z,73.12
2018-06-09T03:40:01.219Z,71.47
2018-06-09T03:41:05.624Z,67.55
2018-06-09T03:42:09.027Z,66.67
2018-06-09T03:43:12.442Z,71.42
2018-06-09T03:44:16.098Z,69.77
2018-06-09T03:45:20.550Z,67.78
2018-06-09T03:46:24.853Z,72.12
2018-06-09T03:47:28.251Z,69.80
2018-06-09T03:48:31.647Z,69.37
2018-06-09T03:49:35.051Z,72.50
2018-06-09T03:50:40.030Z,73.92
2018-06-09T03:51:43.442Z,75.78
2018-06-09T03:52:46.868Z,75.42
2018-06-09T03:53:50.351Z,69.15
2018-06-09T03:54:53.768Z,77.12
2018-06-09T03:55:58.224Z,75.78
2018-06-09T03:57:01.648Z,75.47
2018-06-09T03:58:05.036Z,80.90
2018-06-09T03:59:08.423Z,73.55
2018-06-09T04:00:12.929Z,68.15
2018-06-09T04:01:17.441Z,73.60
2018-06-09T04:02:20.972Z,80.85
2018-06-09T04:03:24.352Z,73.47
2018-06-09T04:04:27.779Z,80.90
2018-06-09T04:05:32.612Z,77.10
2018-06-09T04:06:36.043Z,74.03
2018-06-09T04:07:39.488Z,82.00
2018-06-09T04:08:42.887Z,83.80
2018-06-09T04:09:46.299Z,79.85
2018-06-09T04:10:50.957Z,84.77
2018-06-09T04:11:54.387Z,80.70
2018-06-09T04:12:58.727Z,84.37
2018-06-09T04:14:02.111Z,76.45
2018-06-09T04:15:06.475Z,82.08
2018-06-09T04:16:10.855Z,76.55
2018-06-09T04:17:14.279Z,85.55
2018-06-09T04:18:17.667Z,97.02
2018-06-09T04:19:27.535Z,77.03
2018-06-09T04:20:32.780Z,80.03
2018-06-09T04:21:36.183Z,82.92
2018-06-09T04:22:39.571Z,91.67
2018-06-09T04:24:59.215Z,88.55
2018-06-09T04:26:03.705Z,99.45
2018-06-09T04:27:07.128Z,89.47
2018-06-09T04:28:10.495Z,84.00
2018-06-09T04:29:13.883Z,91.55
2018-06-09T04:30:18.220Z,95.20
2018-06-09T04:31:23.435Z,86.70
2018-06-09T04:32:26.870Z,86.65
2018-06-09T04:33:30.267Z,89.80
2018-06-09T04:34:33.664Z,98.87
2018-06-09T04:35:38.073Z,102.30
2018-06-09T04:36:41.210Z,102.95
2018-06-09T04:37:50.835Z,98.65
2018-06-09T04:38:54.227Z,103.05
2018-06-09T04:39:57.647Z,95.30
2018-06-09T04:41:02.508Z,98.92
2018-06-09T04:42:05.943Z,104.95
2018-06-09T04:43:09.328Z,98.60
2018-06-09T04:44:12.724Z,101.92
2018-06-09T04:45:17.185Z,99.67
2018-06-09T04:46:22.468Z,101.15
2018-06-09T04:47:25.879Z,104.78
2018-06-09T04:48:29.375Z,106.35
2018-06-09T04:49:32.767Z,110.70
2018-06-09T04:50:37.596Z,110.20
2018-06-09T04:51:41.015Z,108.83
2018-06-09T04:52:44.423Z,121.22
2018-06-09T04:53:47.848Z,111.55
2018-06-09T04:54:51.236Z,114.47
2018-06-09T04:55:56.093Z,123.85
2018-06-09T04:56:59.526Z,143.62
2018-06-09T04:58:03.118Z,137.35
2018-06-09T04:59:06.520Z,134.85
2018-06-09T05:00:10.934Z,151.68
2018-06-09T05:01:14.812Z,149.72
2018-06-09T05:02:17.930Z,156.18
2018-06-09T05:03:21.034Z,151.37
2018-06-09T05:04:24.435Z,164.47
2018-06-09T05:05:28.797Z,161.25
2018-06-09T05:06:32.228Z,169.28
2018-06-09T05:07:35.620Z,155.97
2018-06-09T05:08:39.075Z,159.65
2018-06-09T05:09:42.508Z,166.60
2018-06-09T05:10:47.041Z,168.10
2018-06-09T05:11:50.486Z,166.03
2018-06-09T05:12:53.930Z,157.30
2018-06-09T05:13:57.304Z,160.20
2018-06-09T05:15:00.401Z,167.10
2018-06-09T05:16:05.142Z,151.12
2018-06-09T05:17:08.603Z,157.40
2018-06-09T05:18:11.683Z,150.62
2018-06-09T05:19:14.790Z,148.38
2018-06-09T05:20:19.246Z,139.90
2018-06-09T05:21:23.032Z,140.60
2018-06-09T05:22:26.139Z,149.15
2018-06-09T05:23:29.531Z,146.80
2018-06-09T05:24:33.199Z,137.62
2018-06-09T05:25:37.641Z,141.45
2018-06-09T05:26:41.043Z,140.07
2018-06-09T05:27:44.445Z,130.37
2018-06-09T05:28:47.843Z,115.88
2018-06-09T05:29:51.379Z,118.50
2018-06-09T05:30:56.569Z,128.72
2018-06-09T05:31:59.977Z,114.47
2018-06-09T05:33:03.371Z,110.95
2018-06-09T05:34:09.967Z,115.95
2018-06-09T05:35:14.403Z,100.35
2018-06-09T05:36:19.356Z,95.53
2018-06-09T05:37:22.768Z,95.42
2018-06-09T05:38:26.155Z,87.35
2018-06-09T05:39:29.539Z,80.25
2018-06-09T05:40:34.652Z,78.15
2018-06-09T05:41:38.075Z,79.42
2018-06-09T05:42:41.471Z,80.32
2018-06-09T05:43:44.855Z,75.12
2018-06-09T05:44:48.243Z,66.47
2018-06-09T05:45:54.561Z,66.02
2018-06-09T05:46:57.976Z,67.40
2018-06-09T05:48:01.374Z,63.35
2018-06-09T05:49:04.755Z,62.17
2018-06-09T05:50:09.228Z,60.38
2018-06-09T05:51:13.730Z,58.13
2018-06-09T05:52:17.147Z,65.28
2018-06-09T05:53:20.541Z,60.90
2018-06-09T05:54:23.943Z,60.08
2018-06-09T05:55:28.401Z,52.65
2018-06-09T05:56:31.856Z,54.90
2018-06-09T05:57:35.265Z,64.55
2018-06-09T05:58:38.651Z,53.63
2018-06-09T05:59:42.051Z,53.65
2018-06-09T06:00:46.461Z,50.98
2018-06-09T06:01:49.883Z,51.88
2018-06-09T06:02:53.283Z,49.03
2018-06-09T06:03:56.709Z,54.73
2018-06-09T06:05:00.104Z,48.50
2018-06-09T06:06:04.592Z,56.75
2018-06-09T06:07:08.008Z,52.62
2018-06-09T06:08:11.090Z,54.08
2018-06-09T06:09:14.186Z,49.55
2018-06-09T06:10:18.673Z,48.92
2018-06-09T06:11:23.252Z,53.73
2018-06-09T06:12:26.675Z,49.25
2018-06-09T06:13:30.083Z,50.12
2018-06-09T06:14:33.463Z,48.98
2018-06-09T06:15:37.831Z,45.45
2018-06-09T06:16:40.932Z,47.73
2018-06-09T06:17:44.325Z,47.65
2018-06-09T06:18:47.532Z,46.70
2018-06-09T06:19:50.578Z,53.25
2018-06-09T06:20:55.972Z,48.78
2018-06-09T06:21:59.098Z,45.90
2018-06-09T06:23:08.610Z,42.62
2018-06-09T06:24:11.995Z,47.15
2018-06-09T06:25:16.316Z,44.58
2018-06-09T06:26:20.808Z,44.60
2018-06-09T06:27:23.910Z,42.88
2018-06-09T06:28:27.009Z,45.67
2018-06-09T06:29:30.395Z,46.73
2018-06-09T06:30:34.779Z,41.88
2018-06-09T06:31:38.202Z,42.53
2018-06-09T06:32:41.604Z,44.50
2018-06-09T06:33:45.056Z,45.20
2018-06-09T06:34:48.451Z,43.13
2018-06-09T06:35:52.811Z,46.73
2018-06-09T06:36:56.239Z,42.67
2018-06-09T06:37:59.628Z,41.10
2018-06-09T06:39:03.263Z,46.77
2018-06-09T06:40:07.701Z,47.80
2018-06-09T06:41:12.080Z,46.95
2018-06-09T06:42:15.499Z,49.42
2018-06-09T06:43:18.578Z,49.77
2018-06-09T06:44:21.979Z,43.02
2018-06-09T06:45:27.437Z,44.75
2018-06-09T06:46:30.867Z,47.15
2018-06-09T06:47:34.259Z,57.10
2018-06-09T06:48:37.634Z,43.40
2018-06-09T06:49:41.031Z,46.35
2018-06-09T06:50:46.042Z,60.30
2018-06-09T06:51:49.179Z,46.35
2018-06-09T06:52:52.563Z,45.40
2018-06-09T06:53:55.948Z,44.70
2018-06-09T06:54:59.359Z,47.27
2018-06-09T06:56:03.806Z,54.48
2018-06-09T06:57:06.916Z,51.48
2018-06-09T06:58:10.310Z,49.90
2018-06-09T06:59:13.697Z,56.08
2018-06-09T07:00:18.712Z,55.03
2018-06-09T07:01:23.491Z,51.68
2018-06-09T07:02:26.587Z,54.98
2018-06-09T07:03:29.666Z,57.55
2018-06-09T07:04:33.111Z,55.58
2018-06-09T07:05:37.661Z,58.95
2018-06-09T07:06:40.754Z,57.15
2018-06-09T07:07:43.836Z,57.33
2018-06-09T07:08:47.225Z,56.28
2018-06-09T07:09:50.607Z,57.95
2018-06-09T07:10:55.237Z,61.08
2018-06-09T07:11:58.646Z,68.00
2018-06-09T07:13:02.032Z,62.93
2018-06-09T07:14:05.415Z,63.75
2018-06-09T07:15:09.804Z,68.97
2018-06-09T07:16:14.200Z,70.12
2018-06-09T07:17:17.666Z,71.15
2018-06-09T07:18:21.064Z,76.33
2018-06-09T07:19:24.495Z,70.28
2018-06-09T07:20:29.044Z,76.92
2018-06-09T07:21:32.479Z,75.47
2018-06-09T07:22:35.871Z,83.70
2018-06-09T07:23:39.267Z,78.33
2018-06-09T07:24:42.663Z,81.32
2018-06-09T07:25:47.674Z,80.17
2018-06-09T07:26:51.235Z,77.42
2018-06-09T07:27:54.611Z,80.50
2018-06-09T07:28:57.687Z,78.47
2018-06-09T07:30:00.771Z,80.92
2018-06-09T07:31:04.512Z,72.82
2018-06-09T07:32:07.939Z,71.95
2018-06-09T07:33:11.331Z,73.40
2018-06-09T07:34:14.735Z,65.92
2018-06-09T07:35:19.320Z,64.07
2018-06-09T07:36:23.468Z,67.20
2018-06-09T07:37:26.911Z,69.80
2018-06-09T07:38:30.301Z,68.72
2018-06-09T07:39:33.695Z,63.00
2018-06-09T07:40:38.001Z,66.65
2018-06-09T07:41:41.097Z,63.40
2018-06-09T07:42:44.518Z,69.70
2018-06-09T07:43:47.908Z,64.07
2018-06-09T07:44:51.315Z,60.38
2018-06-09T07:45:55.944Z,64.22
2018-06-09T07:46:59.383Z,58.38
2018-06-09T07:48:02.832Z,64.27
2018-06-09T07:49:05.916Z,68.92
2018-06-09T07:50:09.805Z,65.65
2018-06-09T07:51:15.416Z,60.23
2018-06-09T07:52:18.819Z,56.95
2018-06-09T07:53:22.234Z,59.58
2018-06-09T07:54:25.628Z,59.53
2018-06-09T07:55:30.075Z,63.45
2018-06-09T07:56:33.491Z,61.10
2018-06-09T07:57:36.887Z,57.83
2018-06-09T07:58:40.300Z,57.50
2018-06-09T07:59:43.695Z,60.85
2018-06-09T08:00:48.633Z,54.33
2018-06-09T08:01:52.047Z,59.15
2018-06-09T08:02:55.532Z,55.25
2018-06-09T08:03:58.955Z,49.77
2018-06-09T08:05:02.414Z,56.63
2018-06-09T08:06:06.833Z,54.75
2018-06-09T08:07:14.787Z,52.62
2018-06-09T08:08:18.195Z,49.93
2018-06-09T08:09:21.621Z,50.08
2018-06-09T08:10:26.483Z,56.77
2018-06-09T08:11:30.331Z,52.17
2018-06-09T08:12:33.723Z,53.15
2018-06-09T08:13:37.126Z,54.63
2018-06-09T08:14:40.532Z,52.80
2018-06-09T08:15:44.919Z,50.20
2018-06-09T08:16:48.343Z,49.40
2018-06-09T08:17:51.779Z,52.30
2018-06-09T08:18:55.173Z,54.93
2018-06-09T08:19:58.588Z,51.73
2018-06-09T08:21:03.025Z,54.53
2018-06-09T08:22:06.443Z,49.73
2018-06-09T08:23:09.851Z,48.28
2018-06-09T08:24:13.236Z,50.35
2018-06-09T08:25:18.079Z,47.03
2018-06-09T08:26:22.662Z,47.98
2018-06-09T08:27:26.059Z,51.20
2018-06-09T08:28:29.462Z,54.70
2018-06-09T08:29:32.860Z,52.90
2018-06-09T08:30:37.178Z,54.00
2018-06-09T08:31:40.286Z,53.45
2018-06-09T08:32:43.368Z,52.90
2018-06-09T08:33:46.458Z,49.77
2018-06-09T08:34:49.842Z,52.05
2018-06-09T08:35:54.367Z,48.33
2018-06-09T08:36:57.776Z,50.05
2018-06-09T08:38:01.161Z,50.88
2018-06-09T08:39:05.947Z,46.50
2018-06-09T08:40:10.338Z,54.08
2018-06-09T08:41:14.882Z,47.50
2018-06-09T08:42:18.315Z,45.12
2018-06-09T08:43:21.711Z,46.73
2018-06-09T08:44:25.120Z,46.65
2018-06-09T08:45:29.518Z,50.88
2018-06-09T08:46:33.044Z,47.50
2018-06-09T08:47:36.519Z,44.30
2018-06-09T08:48:39.908Z,47.13
2018-06-09T08:49:43.311Z,47.70
2018-06-09T08:50:47.644Z,51.98
2018-06-09T08:51:51.081Z,43.87
2018-06-09T08:52:54.463Z,45.03
2018-06-09T08:53:57.847Z,44.40
2018-06-09T08:55:01.232Z,45.28
2018-06-09T08:56:05.699Z,44.45
2018-06-09T08:57:09.153Z,46.42
2018-06-09T08:58:12.533Z,43.13
2018-06-09T08:59:15.950Z,47.95
2018-06-09T09:00:20.388Z,44.73
2018-06-09T09:01:23.985Z,51.92
2018-06-09T09:02:27.396Z,43.95
2018-06-09T09:03:30.787Z,43.28
2018-06-09T09:04:34.180Z,44.48
2018-06-09T09:05:38.740Z,41.48
2018-06-09T09:06:42.171Z,40.05
2018-06-09T09:07:45.551Z,44.58
2018-06-09T09:08:48.935Z,41.10
2018-06-09T09:09:52.315Z,44.05
2018-06-09T09:10:57.512Z,43.33
2018-06-09T09:12:00.649Z,46.68
2018-06-09T09:13:04.035Z,46.23
2018-06-09T09:14:07.427Z,40.48
2018-06-09T09:15:12.307Z,41.45
2018-06-09T09:16:16.736Z,39.18
2018-06-09T09:17:20.259Z,38.92
2018-06-09T09:18:23.647Z,42.53
2018-06-09T09:19:27.037Z,43.55
2018-06-09T09:20:31.547Z,37.93
2018-06-09T09:21:34.975Z,40.23
2018-06-09T09:22:38.058Z,38.30
2018-06-09T09:23:41.142Z,38.35
2018-06-09T09:24:44.222Z,36.80
2018-06-09T09:25:48.053Z,37.08
2018-06-09T09:26:51.472Z,39.08
2018-06-09T09:27:54.867Z,40.63
2018-06-09T09:28:58.255Z,43.52
2018-06-09T09:30:01.648Z,41.13
2018-06-09T09:31:06.200Z,41.53
2018-06-09T09:32:09.674Z,36.10
2018-06-09T09:33:13.027Z,37.45
2018-06-09T09:34:16.427Z,34.43
2018-06-09T09:35:21.000Z,37.40
2018-06-09T09:36:25.043Z,40.88
2018-06-09T09:37:28.469Z,37.63
2018-06-09T09:38:31.855Z,36.48
2018-06-09T09:39:35.251Z,39.73
2018-06-09T09:40:39.588Z,37.00
2018-06-09T09:41:42.718Z,38.23
2018-06-09T09:42:46.100Z,40.00
2018-06-09T09:43:49.484Z,34.33
2018-06-09T09:44:52.878Z,36.83
2018-06-09T09:45:58.355Z,38.13
2018-06-09T09:47:01.784Z,34.73
2018-06-09T09:48:05.217Z,31.10
2018-06-09T09:49:08.609Z,33.05
2018-06-09T09:50:13.615Z,33.40
2018-06-09T09:51:18.258Z,33.10
2018-06-09T09:52:21.410Z,32.17
2018-06-09T09:53:24.843Z,32.63
2018-06-09T09:54:28.244Z,32.83
2018-06-09T09:55:32.779Z,30.45
2018-06-09T09:56:36.209Z,33.13
2018-06-09T09:57:51.071Z,35.52
2018-06-09T09:58:54.483Z,34.65
2018-06-09T09:59:57.646Z,32.65
2018-06-09T10:01:02.244Z,29.90
2018-06-09T10:02:05.700Z,30.15
2018-06-09T10:03:09.363Z,31.50
2018-06-09T10:04:12.803Z,33.95
2018-06-09T10:05:17.939Z,28.40
2018-06-09T10:06:22.434Z,29.98
2018-06-09T10:07:25.808Z,31.75
2018-06-09T10:08:29.204Z,28.60
2018-06-09T10:09:32.607Z,25.68
2018-06-09T10:10:37.044Z,25.48
2018-06-09T10:11:40.448Z,27.95
2018-06-09T10:12:43.839Z,27.17
2018-06-09T10:13:47.240Z,28.47
2018-06-09T10:14:50.651Z,27.50
2018-06-09T10:15:55.077Z,29.40
2018-06-09T10:16:58.537Z,31.82
2018-06-09T10:18:01.928Z,31.37
2018-06-09T10:19:05.503Z,28.90
2018-06-09T10:20:09.798Z,30.77
2018-06-09T10:21:14.353Z,31.42
2018-06-09T10:22:17.794Z,25.97
2018-06-09T10:23:21.193Z,26.82
2018-06-09T10:24:24.615Z,25.77
2018-06-09T10:25:29.008Z,25.05
2018-06-09T10:26:32.427Z,26.52
2018-06-09T10:27:35.831Z,31.33
2018-06-09T10:28:39.240Z,28.12
2018-06-09T10:29:42.660Z,29.52
2018-06-09T10:30:47.156Z,27.93
2018-06-09T10:31:57.061Z,26.80
2018-06-09T10:33:00.463Z,26.42
2018-06-09T10:34:03.875Z,23.75
2018-06-09T10:35:08.264Z,27.90
2018-06-09T10:36:13.145Z,29.87
2018-06-09T10:37:16.690Z,24.70
2018-06-09T10:38:20.055Z,23.27
2018-06-09T10:39:23.467Z,28.02
2018-06-09T10:40:27.817Z,30.97
2018-06-09T10:41:31.247Z,25.12
2018-06-09T10:42:34.639Z,26.10
2018-06-09T10:43:38.028Z,26.60
2018-06-09T10:44:41.419Z,26.80
2018-06-09T10:45:45.948Z,30.02
2018-06-09T10:46:49.354Z,27.30
2018-06-09T10:47:52.735Z,28.27
2018-06-09T10:48:56.131Z,27.02
2018-06-09T10:49:59.247Z,23.50
2018-06-09T10:51:03.713Z,23.92
2018-06-09T10:52:07.123Z,22.20
2018-06-09T10:53:10.503Z,25.88
2018-06-09T10:54:13.586Z,24.80
2018-06-09T10:55:17.434Z,23.18
2018-06-09T10:56:22.783Z,22.50
2018-06-09T10:57:26.189Z,27.70
2018-06-09T10:58:29.271Z,25.32
2018-06-09T10:59:32.350Z,18.87
2018-06-09T11:00:36.880Z,27.00
2018-06-09T11:01:40.304Z,25.23
2018-06-09T11:02:43.687Z,25.75
2018-06-09T11:03:47.070Z,26.27
2018-06-09T11:04:50.471Z,31.60
2018-06-09T11:05:55.446Z,26.57
2018-06-09T11:06:58.871Z,25.48
2018-06-09T11:08:02.267Z,23.00
2018-06-09T11:09:07.006Z,26.45
2018-06-09T11:10:11.518Z,26.48
2018-06-09T11:11:16.164Z,24.40
2018-06-09T11:12:19.582Z,24.85
2018-06-09T11:13:22.993Z,22.93
2018-06-09T11:14:26.376Z,21.02
2018-06-09T11:15:30.746Z,24.85
2018-06-09T11:16:34.192Z,24.63
2018-06-09T11:17:37.575Z,22.73
2018-06-09T11:18:40.960Z,22.27
2018-06-09T11:19:44.336Z,22.85
2018-06-09T11:20:48.757Z,22.93
2018-06-09T11:21:52.180Z,23.52
2018-06-09T11:22:55.571Z,23.50
2018-06-09T11:23:58.970Z,22.10
2018-06-09T11:25:02.363Z,21.70
2018-06-09T11:26:07.711Z,22.75
2018-06-09T11:27:11.169Z,20.15
2018-06-09T11:28:14.563Z,24.82
2018-06-09T11:29:17.943Z,23.22
2018-06-09T11:30:24.258Z,21.45
2018-06-09T11:31:29.091Z,20.92
2018-06-09T11:32:32.503Z,22.32
2018-06-09T11:33:35.903Z,24.67
2018-06-09T11:34:39.300Z,19.62
2018-06-09T11:35:44.485Z,22.15
2018-06-09T11:36:47.904Z,24.60
2018-06-09T11:37:51.303Z,20.35
2018-06-09T11:38:54.691Z,23.55
2018-06-09T11:39:58.079Z,23.50
2018-06-09T11:41:02.431Z,18.95
2018-06-09T11:42:05.852Z,20.20
2018-06-09T11:43:09.259Z,22.60
2018-06-09T11:44:12.644Z,17.98
2018-06-09T11:45:17.064Z,21.60
2018-06-09T11:46:21.529Z,18.17
2018-06-09T11:47:24.935Z,21.77
2018-06-09T11:48:28.343Z,19.55
2018-06-09T11:49:31.743Z,18.95
2018-06-09T11:50:36.097Z,21.68
2018-06-09T11:51:39.504Z,19.70
2018-06-09T11:52:42.901Z,21.50
2018-06-09T11:53:46.311Z,18.32
2018-06-09T11:54:49.723Z,21.90
2018-06-09T11:55:55.033Z,22.98
2018-06-09T11:56:58.447Z,17.98
2018-06-09T11:58:01.851Z,18.07
2018-06-09T11:59:05.395Z,21.37
2018-06-09T12:00:09.789Z,17.20
2018-06-09T12:01:13.505Z,17.17
2018-06-09T12:02:16.928Z,19.30
2018-06-09T12:03:20.324Z,17.67
2018-06-09T12:04:23.739Z,16.02
2018-06-09T12:05:28.194Z,19.23
2018-06-09T12:06:31.943Z,18.42
2018-06-09T12:07:35.331Z,15.98
2018-06-09T12:08:38.747Z,16.70
2018-06-09T12:09:42.167Z,18.85
2018-06-09T12:10:47.019Z,17.12
2018-06-09T12:11:50.137Z,18.27
2018-06-09T12:12:53.538Z,19.40
2018-06-09T12:13:56.940Z,18.25
2018-06-09T12:15:00.391Z,13.88
2018-06-09T12:16:04.102Z,19.15
2018-06-09T12:17:07.581Z,20.00
2018-06-09T12:18:10.976Z,22.55
2018-06-09T12:19:14.519Z,17.40
2018-06-09T12:20:19.157Z,21.27
2018-06-09T12:21:23.644Z,18.45
2018-06-09T12:22:26.855Z,19.27
2018-06-09T12:23:29.961Z,19.67
2018-06-09T12:24:33.355Z,18.17
2018-06-09T12:25:37.858Z,21.35
2018-06-09T12:26:41.283Z,19.32
2018-06-09T12:27:44.687Z,18.67
2018-06-09T12:28:48.095Z,19.37
2018-06-09T12:29:51.199Z,18.52
2018-06-09T12:30:56.356Z,16.52
2018-06-09T12:31:59.782Z,20.10
2018-06-09T12:33:03.244Z,19.30
2018-06-09T12:34:06.603Z,21.40
2018-06-09T12:35:10.980Z,20.90
2018-06-09T12:36:17.291Z,24.32
2018-06-09T12:37:20.699Z,22.20
2018-06-09T12:38:24.095Z,22.70
2018-06-09T12:39:27.225Z,24.60
2018-06-09T12:40:33.136Z,19.48
2018-06-09T12:41:36.559Z,19.55
2018-06-09T12:42:40.032Z,18.23
2018-06-09T12:43:43.436Z,17.70
2018-06-09T12:44:46.847Z,20.95
2018-06-09T12:45:51.260Z,20.90
2018-06-09T12:46:55.171Z,20.95
2018-06-09T12:47:58.250Z,19.35
2018-06-09T12:49:01.648Z,20.45
2018-06-09T12:50:05.871Z,21.93
2018-06-09T12:51:09.754Z,20.27
2018-06-09T12:52:13.193Z,18.75
2018-06-09T12:53:16.603Z,22.22
2018-06-09T12:54:19.991Z,21.90
2018-06-09T12:55:24.389Z,20.08
2018-06-09T12:56:29.279Z,22.95
2018-06-09T12:57:32.685Z,18.70
2018-06-09T12:58:36.088Z,18.32
2018-06-09T12:59:39.476Z,19.02
2018-06-09T13:00:43.978Z,20.85
2018-06-09T13:01:47.387Z,18.05
2018-06-09T13:02:50.531Z,18.57
2018-06-09T13:03:53.963Z,16.87
2018-06-09T13:04:57.359Z,19.92
2018-06-09T13:06:02.110Z,22.37
2018-06-09T13:07:05.450Z,18.23
2018-06-09T13:08:08.883Z,17.55
2018-06-09T13:09:12.295Z,19.27
2018-06-09T13:10:16.877Z,18.90
2018-06-09T13:11:21.252Z,23.92
2018-06-09T13:12:24.791Z,19.45
2018-06-09T13:13:28.212Z,21.62
2018-06-09T13:14:31.607Z,17.77
2018-06-09T13:15:36.068Z,18.48
2018-06-09T13:16:39.483Z,23.05
2018-06-09T13:17:42.884Z,23.90
2018-06-09T13:18:46.319Z,20.48
2018-06-09T13:19:49.703Z,23.87
2018-06-09T13:20:54.774Z,24.37
2018-06-09T13:21:58.199Z,22.02
2018-06-09T13:23:01.584Z,19.70
2018-06-09T13:24:05.011Z,22.55
2018-06-09T13:25:09.459Z,23.67
2018-06-09T13:26:14.017Z,17.35
2018-06-09T13:27:17.163Z,24.70
2018-06-09T13:28:20.652Z,16.52
2018-06-09T13:29:24.092Z,20.90
2018-06-09T13:30:28.637Z,16.62
2018-06-09T13:31:32.103Z,24.75
2018-06-09T13:32:35.493Z,23.83
2018-06-09T13:33:38.578Z,27.62
2018-06-09T13:34:41.991Z,24.43
2018-06-09T13:35:46.543Z,27.58
2018-06-09T13:36:50.104Z,23.62
2018-06-09T13:37:53.501Z,23.75
2018-06-09T13:38:56.895Z,25.05
2018-06-09T13:40:00.304Z,28.20
2018-06-09T13:41:04.786Z,22.13
2018-06-09T13:42:08.202Z,19.82
2018-06-09T13:43:11.623Z,19.98